Observations for ST. NAZAIRE MONTOIR, France (LFRZ)

LFRZ 170030Z AUTO 34003KT CAVOK 16/12 Q1017 NOSIG   
LFRZ 170000Z AUTO 34004KT CAVOK 17/12 Q1017 NOSIG   
LFRZ 162330Z AUTO 33003KT 300V360 CAVOK 17/13 Q1017 NOSIG   
LFRZ 162300Z AUTO 33004KT CAVOK 17/14 Q1017 NOSIG   
LFRZ 162230Z AUTO 30004KT 270V330 CAVOK 17/14 Q1017 NOSIG   
LFRZ 162200Z AUTO 29005KT 260V320 CAVOK 17/13 Q1017 NOSIG   
LFRZ 162130Z AUTO 30005KT 270V330 CAVOK 18/13 Q1017 NOSIG   
LFRZ 162100Z AUTO 30006KT 270V330 CAVOK 19/13 Q1017 NOSIG   
LFRZ 162030Z AUTO 29007KT CAVOK 19/12 Q1017 NOSIG   
LFRZ 162000Z AUTO 28010KT CAVOK 20/12 Q1017 NOSIG   
LFRZ 161930Z AUTO 29010KT CAVOK 21/12 Q1017 NOSIG   
LFRZ 161900Z AUTO 29010KT CAVOK 22/11 Q1017 NOSIG   
LFRZ 161830Z AUTO 29010KT CAVOK 23/10 Q1017 NOSIG   
LFRZ 161800Z AUTO 29011KT CAVOK 24/10 Q1016 NOSIG   
LFRZ 161730Z AUTO 30012KT CAVOK 24/09 Q1016 NOSIG   
LFRZ 161700Z AUTO 28011KT CAVOK 25/08 Q1016 NOSIG   
LFRZ 161630Z AUTO 29010KT 260V320 CAVOK 26/08 Q1016 NOSIG   
LFRZ 161600Z AUTO 29011KT CAVOK 26/08 Q1017 NOSIG   
LFRZ 161530Z AUTO 29010KT 240V320 CAVOK 26/09 Q1017 NOSIG   
LFRZ 161500Z AUTO 28011KT 260V330 CAVOK 26/08 Q1017 NOSIG   
LFRZ 161430Z AUTO 29012KT CAVOK 26/09 Q1017 NOSIG   
LFRZ 161400Z AUTO 29006KT 230V350 CAVOK 26/09 Q1017 NOSIG   
LFRZ 161330Z AUTO 29007KT 230V330 CAVOK 26/09 Q1017 NOSIG   
LFRZ 161300Z AUTO /////KT CAVOK 26/08 Q1017 
LFRZ 161230Z AUTO 29008KT 240V010 CAVOK 26/07 Q1018 NOSIG   
LFRZ 161200Z AUTO 29008KT 240V320 CAVOK 26/08 Q1018 NOSIG   
LFRZ 161130Z AUTO 34005KT 260V030 CAVOK 25/08 Q1018 NOSIG   
LFRZ 161100Z AUTO VRB06KT CAVOK 25/08 Q1018 NOSIG   
LFRZ 161030Z AUTO VRB04KT CAVOK 25/09 Q1018 NOSIG   
LFRZ 161000Z AUTO 04006KT 340V130 CAVOK 24/09 Q1018 NOSIG   
LFRZ 160930Z AUTO 05006KT 010V100 CAVOK 23/10 Q1018 NOSIG   
LFRZ 160900Z AUTO 03004KT 340V120 CAVOK 23/11 Q1018 NOSIG   
LFRZ 160830Z AUTO 05003KT 360V100 CAVOK 21/11 Q1018 NOSIG   
LFRZ 160804Z AUTO /////KT //// // ////// ///// Q////
LFRZ 160730Z AUTO /////KT //// R25///// // NSC 18/12 Q1019  
LFRZ 160700Z AUTO /////KT //// R25///// // NSC 16/12 Q1018  
LFRZ 160630Z AUTO /////KT //// R25///// // NSC 15/12 Q1019  
LFRZ 160600Z AUTO 04005KT CAVOK 14/11 Q1018 NOSIG   
LFRZ 160530Z AUTO 03005KT CAVOK 13/11 Q1018 NOSIG   
LFRZ 160500Z AUTO 02005KT CAVOK 13/11 Q1018 NOSIG   
LFRZ 160430Z AUTO 04005KT CAVOK 13/11 Q1018 NOSIG   
LFRZ 160400Z AUTO 02005KT CAVOK 13/11 Q1018 NOSIG   
LFRZ 160330Z AUTO 01004KT CAVOK 13/11 Q1018 NOSIG   
LFRZ 160300Z AUTO 01004KT CAVOK 13/11 Q1018 NOSIG   
LFRZ 160230Z AUTO 01004KT CAVOK 14/11 Q1018 NOSIG   
LFRZ 160200Z AUTO 01003KT 350V050 CAVOK 14/11 Q1018 NOSIG   
LFRZ 160130Z AUTO 36003KT CAVOK 14/11 Q1019 NOSIG   
LFRZ 160100Z AUTO 36003KT CAVOK 15/11 Q1019 NOSIG   
LFRZ 160030Z AUTO 36003KT CAVOK 14/11 Q1019 NOSIG   
LFRZ 160000Z AUTO 36003KT CAVOK 16/11 Q1019 NOSIG